Time;durP1;ratioP1;P1;durP2;ratioP2;P2;SDS_P1;SDS_P2;PMS_P1;PMS_P2;Temp;Humidity;BMP_temperature;BMP_pressure;BME280_temperature;BME280_humidity;BME280_pressure;Samples;Min_cycle;Max_cycle;Signal;HPM_P1;HPM_P2
2023/04/03 05:02:11;;;;;;;7.05;2.47;;;4.60;98.50;;;;;;5581282;23;20345;-75
2023/04/03 05:04:39;;;;;;;5.53;2.38;;;4.60;98.50;;;;;;4943618;29;20040;-74
2023/04/03 05:07:11;;;;;;;4.45;2.40;;;4.70;98.10;;;;;;4963952;28;20039;-72
2023/04/03 05:09:37;;;;;;;4.78;2.42;;;4.70;97.80;;;;;;4944867;29;20281;-76
2023/04/03 05:12:04;;;;;;;7.05;2.30;;;4.70;97.40;;;;;;4951488;29;20023;-74
2023/04/03 05:14:36;;;;;;;5.13;2.05;;;4.80;97.20;;;;;;4946064;29;20031;-75
2023/04/03 05:17:05;;;;;;;3.25;1.80;;;4.80;97.20;;;;;;4946510;29;20225;-75
2023/04/03 05:19:35;;;;;;;3.45;1.50;;;4.70;97.10;;;;;;4952300;29;20042;-77
2023/04/03 05:22:02;;;;;;;3.08;1.80;;;4.80;96.70;;;;;;4933749;29;20028;-75
2023/04/03 05:24:29;;;;;;;5.28;1.95;;;4.80;96.70;;;;;;4927645;29;20079;-77
2023/04/03 05:26:54;;;;;;;3.88;1.90;;;4.80;96.90;;;;;;4941798;29;20031;-76
2023/04/03 05:29:21;;;;;;;4.45;2.00;;;4.80;97.10;;;;;;4947556;29;20062;-74
2023/04/03 05:31:51;;;;;;;3.78;2.17;;;4.80;97.30;;;;;;4946082;29;20047;-74
2023/04/03 05:34:17;;;;;;;3.80;1.90;;;4.80;97.30;;;;;;4947669;29;20163;-76
2023/04/03 05:36:45;;;;;;;5.75;2.20;;;4.80;97.40;;;;;;4947000;29;20071;-75
2023/04/03 05:39:12;;;;;;;3.53;2.35;;;4.80;97.60;;;;;;4927246;29;20047;-74
2023/04/03 05:41:41;;;;;;;3.42;1.90;;;4.80;97.60;;;;;;4939685;29;20028;-76
2023/04/03 05:44:07;;;;;;;3.97;2.20;;;4.80;97.10;;;;;;4945501;29;20110;-76
2023/04/03 05:46:33;;;;;;;5.45;2.50;;;4.70;97.30;;;;;;4927213;29;20020;-75
2023/04/03 05:49:02;;;;;;;3.92;2.13;;;4.70;97.30;;;;;;4945513;29;20023;-75
2023/04/03 05:51:34;;;;;;;;;;;4.70;97.70;;;;;;4927468;29;20027;-73
2023/04/03 05:54:28;;;;;;;6.32;2.42;;;4.70;97.90;;;;;;4933782;29;20022;-74
2023/04/03 05:57:04;;;;;;;8.90;2.50;;;4.80;97.50;;;;;;4928815;29;20313;-76
2023/04/03 05:59:30;;;;;;;4.93;1.90;;;4.70;97.10;;;;;;4945866;29;20023;-75
2023/04/03 06:01:58;;;;;;;6.32;2.20;;;4.70;97.20;;;;;;4944980;29;20078;-75
2023/04/03 06:04:24;;;;;;;7.22;2.25;;;4.70;97.20;;;;;;4945672;29;20024;-75
2023/04/03 06:06:53;;;;;;;4.63;2.05;;;4.70;97.30;;;;;;4945431;29;20098;-75
2023/04/03 06:09:20;;;;;;;;;;;4.70;97.40;;;;;;4946097;29;20027;-74
2023/04/03 06:11:47;;;;;;;3.97;1.73;;;4.70;97.20;;;;;;4944988;29;19907;-76
2023/04/03 06:14:13;;;;;;;4.25;2.10;;;4.70;97.20;;;;;;4945769;29;20031;-75
2023/04/03 06:16:40;;;;;;;4.15;1.90;;;4.80;97.10;;;;;;4925866;29;20032;-76
2023/04/03 06:19:08;;;;;;;5.80;2.20;;;4.80;97.50;;;;;;4945480;29;20102;-75
2023/04/03 06:21:36;;;;;;;2.88;1.60;;;4.80;97.50;;;;;;4945294;29;20026;-75
2023/04/03 06:24:07;;;;;;;4.18;2.15;;;4.90;97.00;;;;;;4925952;29;20024;-77
2023/04/03 06:26:33;;;;;;;5.05;2.10;;;5.00;96.90;;;;;;4923915;29;20024;-74
2023/04/03 06:28:59;;;;;;;3.90;2.10;;;5.00;97.10;;;;;;4935717;29;20036;-75
2023/04/03 06:31:25;;;;;;;4.38;2.15;;;5.00;97.10;;;;;;4946257;29;20062;-77
2023/04/03 06:33:51;;;;;;;4.68;1.92;;;5.00;96.70;;;;;;4945873;29;20190;-74
2023/04/03 06:36:20;;;;;;;6.65;2.10;;;5.00;96.90;;;;;;4946113;29;20038;-76
2023/04/03 06:38:46;;;;;;;4.95;1.92;;;5.10;96.90;;;;;;4925416;29;20111;-75
2023/04/03 06:41:12;;;;;;;4.55;1.90;;;5.20;96.80;;;;;;4941814;29;20026;-75
2023/04/03 06:43:38;;;;;;;8.15;2.20;;;5.20;96.70;;;;;;4945144;29;20027;-76
2023/04/03 06:46:05;;;;;;;5.07;1.95;;;5.30;96.70;;;;;;4944588;29;20067;-75
2023/04/03 06:48:31;;;;;;;3.17;1.90;;;5.30;96.50;;;;;;4926194;29;20037;-75
2023/04/03 06:50:57;;;;;;;5.20;2.00;;;5.30;96.50;;;;;;4938893;29;20038;-75
2023/04/03 06:53:22;;;;;;;3.92;1.98;;;5.20;96.50;;;;;;4946104;29;20032;-74
2023/04/03 06:55:48;;;;;;;5.45;1.92;;;5.20;96.70;;;;;;4943802;29;20024;-75
2023/04/03 06:58:15;;;;;;;3.85;1.90;;;5.30;96.60;;;;;;4939120;29;20039;-75
2023/04/03 07:00:41;;;;;;;4.57;2.00;;;5.40;96.60;;;;;;4945812;29;20249;-76
2023/04/03 07:03:07;;;;;;;6.97;2.20;;;5.50;96.50;;;;;;4925215;29;20048;-74
2023/04/03 07:05:33;;;;;;;6.15;1.90;;;5.50;96.50;;;;;;4937651;29;20031;-76
2023/04/03 07:07:59;;;;;;;4.78;2.40;;;5.60;96.30;;;;;;4928396;29;20091;-75
2023/04/03 07:10:25;;;;;;;4.43;1.73;;;5.60;96.10;;;;;;4945613;29;20047;-74
2023/04/03 07:12:51;;;;;;;4.15;2.03;;;5.60;96.20;;;;;;4944977;29;20201;-74
2023/04/03 07:15:16;;;;;;;4.10;1.95;;;5.60;96.20;;;;;;4939428;29;20074;-75
2023/04/03 07:17:42;;;;;;;4.65;2.05;;;5.70;96.10;;;;;;4923933;29;20324;-73
2023/04/03 07:20:09;;;;;;;6.65;2.08;;;5.70;96.00;;;;;;4945283;29;20042;-73
2023/04/03 07:22:34;;;;;;;4.50;1.92;;;5.80;96.20;;;;;;4945445;29;20047;-74
2023/04/03 07:25:07;;;;;;;6.43;2.30;;;5.80;95.90;;;;;;4944860;29;20256;-72
2023/04/03 07:27:33;;;;;;;7.07;1.85;;;6.00;95.80;;;;;;4944256;29;20039;-71
2023/04/03 07:29:59;;;;;;;4.15;1.90;;;5.90;95.40;;;;;;4943528;29;20066;-71
2023/04/03 07:32:28;;;;;;;3.55;1.90;;;5.90;95.70;;;;;;4944811;29;20027;-73
2023/04/03 07:34:54;;;;;;;4.20;1.98;;;5.90;95.50;;;;;;4944995;29;20054;-73
2023/04/03 07:37:20;;;;;;;4.85;2.05;;;6.00;95.90;;;;;;4939103;29;20052;-73
2023/04/03 07:39:46;;;;;;;6.90;1.92;;;6.10;95.70;;;;;;4942331;29;20035;-73
2023/04/03 07:42:12;;;;;;;3.00;1.52;;;6.30;95.40;;;;;;4943942;29;20039;-73
2023/04/03 07:44:38;;;;;;;3.80;2.00;;;6.40;95.20;;;;;;4941470;29;20027;-73
2023/04/03 07:47:04;;;;;;;3.22;1.67;;;6.40;94.70;;;;;;4935121;29;20190;-72
2023/04/03 07:49:31;;;;;;;3.95;1.90;;;6.40;95.50;;;;;;4944759;29;20027;-73
2023/04/03 07:51:57;;;;;;;4.15;1.70;;;6.70;94.80;;;;;;4936383;29;20111;-74
2023/04/03 07:54:22;;;;;;;4.30;1.77;;;6.60;94.60;;;;;;4938612;29;20327;-69
2023/04/03 07:56:48;;;;;;;4.03;1.77;;;6.80;94.20;;;;;;4947033;29;20047;-73
2023/04/03 07:59:14;;;;;;;5.35;2.05;;;6.90;94.40;;;;;;4949300;29;20024;-70
2023/04/03 08:01:39;;;;;;;4.30;1.83;;;7.10;94.40;;;;;;4932081;29;20027;-71
2023/04/03 08:04:06;;;;;;;5.78;1.95;;;7.10;93.80;;;;;;4944440;29;20035;-73
2023/04/03 08:06:36;;;;;;;5.00;1.50;;;7.20;93.60;;;;;;4944563;29;20043;-71
2023/04/03 08:09:03;;;;;;;4.05;1.85;;;7.30;93.40;;;;;;4943512;29;20355;-72
2023/04/03 08:11:30;;;;;;;3.63;2.05;;;7.30;93.20;;;;;;4943489;29;20376;-70
2023/04/03 08:13:56;;;;;;;3.63;1.75;;;7.40;93.30;;;;;;4944445;29;20036;-72
2023/04/03 08:16:26;;;;;;;4.00;1.90;;;7.50;93.30;;;;;;4944556;29;20324;-71
2023/04/03 08:18:54;;;;;;;4.38;2.00;;;7.30;93.20;;;;;;4943595;29;20330;-72
2023/04/03 08:21:20;;;;;;;4.00;1.60;;;7.10;93.50;;;;;;4944645;29;20063;-69
2023/04/03 08:23:50;;;;;;;5.78;1.85;;;7.00;93.80;;;;;;4944099;29;20083;-70
2023/04/03 08:26:18;;;;;;;3.72;1.83;;;6.90;93.70;;;;;;4943340;29;20325;-69
2023/04/03 08:28:44;;;;;;;4.93;2.08;;;6.90;94.10;;;;;;4944330;29;20212;-70
2023/04/03 08:31:13;;;;;;;4.72;1.98;;;6.90;94.00;;;;;;4944479;29;20233;-71
2023/04/03 08:33:41;;;;;;;5.78;2.20;;;7.00;94.10;;;;;;4944325;29;20083;-71
2023/04/03 08:36:15;;;;;;;6.57;2.28;;;7.00;94.00;;;;;;4941093;29;20039;-73
2023/04/03 08:38:41;;;;;;;6.20;1.92;;;7.00;94.10;;;;;;4937625;29;20040;-71
2023/04/03 08:41:34;;;;;;;5.55;1.70;;;7.10;93.90;;;;;;4939448;29;20027;-70
2023/04/03 08:44:32;;;;;;;5.00;1.90;;;7.30;93.80;;;;;;4943063;29;20107;-72
2023/04/03 08:47:26;;;;;;;4.13;1.70;;;7.40;93.40;;;;;;4932743;29;20045;-69
2023/04/03 08:50:05;;;;;;;5.18;1.85;;;7.70;93.10;;;;;;4943476;29;20050;-71
2023/04/03 08:52:40;;;;;;;5.95;2.08;;;7.60;92.80;;;;;;4944324;29;20047;-72
2023/04/03 08:55:46;;;;;;;3.35;1.55;;;7.70;92.80;;;;;;4943885;29;20039;-71
2023/04/03 08:58:34;;;;;;;4.30;1.80;;;7.70;92.50;;;;;;4928065;29;20087;-71
2023/04/03 09:01:03;;;;;;;6.72;1.85;;;7.60;93.00;;;;;;4943576;29;20202;-73
2023/04/03 09:03:37;;;;;;;5.35;1.80;;;7.60;92.90;;;;;;4943772;29;20123;-74
2023/04/03 09:06:10;;;;;;;5.22;1.77;;;7.60;92.60;;;;;;4943597;29;20336;-71
2023/04/03 09:08:48;;;;;;;4.50;1.75;;;7.40;92.50;;;;;;4943475;29;20047;-71
2023/04/03 09:11:21;;;;;;;3.40;1.60;;;7.40;92.40;;;;;;4938018;29;20102;-72
2023/04/03 09:14:01;;;;;;;6.28;1.80;;;7.40;92.60;;;;;;4942463;29;20153;-79
2023/04/03 09:16:41;;;;;;;5.93;2.03;;;7.70;92.10;;;;;;4944089;29;20084;-73
2023/04/03 09:19:28;;;;;;;8.27;2.20;;;7.80;92.20;;;;;;4943597;29;20038;-71
2023/04/03 09:22:16;;;;;;;4.50;1.55;;;7.80;91.90;;;;;;4946850;29;20273;-71
2023/04/03 09:24:45;;;;;;;2.72;1.45;;;7.90;91.50;;;;;;4947026;29;20218;-74
2023/04/03 09:27:11;;;;;;;6.90;1.92;;;7.80;91.00;;;;;;4947304;29;20043;-73
2023/04/03 09:29:43;;;;;;;6.78;1.70;;;7.80;90.70;;;;;;4947121;29;20031;-73
2023/04/03 09:32:30;;;;;;;3.42;1.70;;;7.90;91.40;;;;;;4947050;29;20043;-73
2023/04/03 09:35:01;;;;;;;3.00;1.60;;;7.90;91.90;;;;;;4939950;29;20054;-73
2023/04/03 09:37:54;;;;;;;4.78;1.50;;;8.00;91.50;;;;;;4936680;29;20149;-73
2023/04/03 09:40:42;;;;;;;5.88;2.10;;;7.80;91.20;;;;;;4934566;29;20063;-72
2023/04/03 09:43:46;;;;;;;;;;;7.70;91.30;;;;;;4947215;29;20103;-73
2023/04/03 09:46:36;;;;;;;4.13;1.60;;;7.70;91.20;;;;;;4893557;29;19907;-74
2023/04/03 09:49:12;;;;;;;3.65;1.48;;;7.80;91.00;;;;;;4891401;29;20103;-73
2023/04/03 09:51:38;;;;;;;4.72;1.63;;;7.90;91.10;;;;;;4906991;29;20048;-74
2023/04/03 09:54:25;;;;;;;3.20;1.50;;;7.90;90.40;;;;;;4903057;29;20274;-73
2023/04/03 09:56:53;;;;;;;7.60;1.80;;;7.70;91.00;;;;;;4914439;29;20313;-71
2023/04/03 09:59:19;;;;;;;6.90;1.92;;;7.90;91.10;;;;;;4942075;29;20020;-73
2023/04/03 10:02:18;;;;;;;5.88;1.95;;;7.90;91.20;;;;;;4946540;29;20027;-72
2023/04/03 10:04:44;;;;;;;3.92;1.90;;;7.90;91.10;;;;;;4945631;29;20289;-71
2023/04/03 10:07:36;;;;;;;3.28;1.60;;;8.00;90.70;;;;;;4945941;29;20043;-72
2023/04/03 10:10:14;;;;;;;3.17;1.38;;;7.80;89.90;;;;;;4946150;29;20039;-73
2023/04/03 10:12:46;;;;;;;5.32;1.70;;;7.60;90.50;;;;;;4946409;29;20103;-76
2023/04/03 10:15:32;;;;;;;4.65;1.58;;;7.70;90.70;;;;;;4935672;29;20062;-74
2023/04/03 10:18:13;;;;;;;4.68;1.70;;;7.80;90.60;;;;;;4932496;29;20055;-75
2023/04/03 10:20:53;;;;;;;2.95;1.48;;;8.00;89.80;;;;;;4945201;29;20046;-73
2023/04/03 10:23:45;;;;;;;4.47;1.33;;;8.20;89.60;;;;;;4946204;29;20031;-75
2023/04/03 10:26:44;;;;;;;3.88;1.55;;;8.10;89.60;;;;;;4928675;29;20068;-74
2023/04/03 10:29:28;;;;;;;3.33;1.27;;;8.10;89.50;;;;;;4946269;29;20035;-74
2023/04/03 10:32:37;;;;;;;4.95;1.67;;;7.90;89.90;;;;;;4936459;29;20059;-73
2023/04/03 10:35:24;;;;;;;5.97;1.90;;;7.90;90.00;;;;;;4938121;29;20175;-73
2023/04/03 10:38:08;;;;;;;3.33;1.80;;;7.70;90.20;;;;;;4940237;29;20111;-73
2023/04/03 10:40:44;;;;;;;3.97;1.45;;;7.70;90.70;;;;;;4945604;29;20035;-74
2023/04/03 10:43:31;;;;;;;4.85;1.67;;;7.60;90.60;;;;;;4945874;29;20043;-74
2023/04/03 10:46:21;;;;;;;3.80;1.65;;;7.50;91.10;;;;;;4944934;29;20043;-75
2023/04/03 10:49:04;;;;;;;3.42;1.50;;;7.70;90.90;;;;;;4934806;29;20031;-76
2023/04/03 10:51:47;;;;;;;4.13;1.58;;;8.10;90.30;;;;;;4927818;29;20028;-74
2023/04/03 10:54:24;;;;;;;4.90;1.40;;;8.50;89.50;;;;;;4945682;29;20323;-74
2023/04/03 10:57:13;;;;;;;3.65;1.13;;;8.70;88.70;;;;;;4945095;29;20111;-75
2023/04/03 10:59:45;;;;;;;3.88;1.33;;;8.70;86.20;;;;;;4929201;29;20281;-73
2023/04/03 11:02:31;;;;;;;4.45;1.40;;;8.40;87.00;;;;;;4943940;29;20039;-74
2023/04/03 11:05:15;;;;;;;4.15;1.58;;;8.20;86.60;;;;;;4939118;29;20035;-74
2023/04/03 11:07:47;;;;;;;2.97;1.23;;;8.20;87.30;;;;;;4935367;29;20055;-75
2023/04/03 11:10:48;;;;;;;3.75;1.38;;;8.30;86.90;;;;;;4927248;29;20027;-74
2023/04/03 11:13:31;;;;;;;6.55;1.38;;;8.50;86.10;;;;;;4928995;29;20047;-76
2023/04/03 11:15:58;;;;;;;5.18;1.52;;;8.80;84.30;;;;;;4944920;29;20046;-76
2023/04/03 11:18:44;;;;;;;2.85;1.25;;;9.00;83.20;;;;;;4945287;29;20067;-74
2023/04/03 11:21:34;;;;;;;4.57;1.08;;;9.00;83.00;;;;;;4937281;29;20031;-76
2023/04/03 11:24:11;;;;;;;7.50;1.52;;;8.50;81.40;;;;;;4932192;29;20063;-75
2023/04/03 11:26:45;;;;;;;6.45;1.40;;;8.40;82.60;;;;;;4943576;29;20102;-74
2023/04/03 11:29:26;;;;;;;4.03;1.30;;;8.20;83.40;;;;;;4942848;29;20134;-74
2023/04/03 11:32:08;;;;;;;5.05;1.30;;;7.90;85.50;;;;;;4944025;29;20036;-75
2023/04/03 11:34:43;;;;;;;4.18;1.30;;;7.80;86.60;;;;;;4944351;29;20032;-75
2023/04/03 11:37:28;;;;;;;4.45;1.38;;;7.80;85.80;;;;;;4941047;29;20043;-75
2023/04/03 11:40:23;;;;;;;2.90;1.48;;;7.70;86.30;;;;;;4944729;29;20031;-76
2023/04/03 11:43:10;;;;;;;3.05;1.35;;;7.80;86.40;;;;;;4936882;29;20269;-74
2023/04/03 11:45:49;;;;;;;4.05;1.55;;;8.10;85.90;;;;;;4943857;29;20027;-75
2023/04/03 11:48:18;;;;;;;3.67;1.30;;;8.20;85.20;;;;;;4943628;29;20047;-74
2023/04/03 11:50:45;;;;;;;3.42;1.27;;;8.50;85.10;;;;;;4945324;29;20026;-73
2023/04/03 11:53:14;;;;;;;3.42;1.25;;;8.40;83.10;;;;;;4944573;29;20067;-73
2023/04/03 11:55:53;;;;;;;;;;;8.30;84.00;;;;;;4945870;29;20072;-76
2023/04/03 11:58:22;;;;;;;5.28;1.27;;;8.40;83.80;;;;;;4927267;29;19945;-75
2023/04/03 12:00:57;;;;;;;3.65;1.35;;;8.40;82.70;;;;;;4944174;29;20020;-75
2023/04/03 12:03:22;;;;;;;3.60;1.42;;;8.30;82.40;;;;;;4943314;29;20055;-75
2023/04/03 12:05:53;;;;;;;3.83;1.35;;;8.40;82.60;;;;;;4944581;29;20214;-75
2023/04/03 12:08:28;;;;;;;4.60;1.75;;;8.50;82.80;;;;;;4944642;29;20047;-75
2023/04/03 12:11:08;;;;;;;5.65;1.35;;;8.20;83.80;;;;;;4944356;29;20035;-75
2023/04/03 12:13:52;;;;;;;6.38;1.58;;;8.20;85.20;;;;;;4944969;29;20035;-75
2023/04/03 12:16:26;;;;;;;4.13;1.70;;;8.30;84.60;;;;;;4944360;29;20343;-75
2023/04/03 12:18:55;;;;;;;4.65;1.52;;;8.30;83.20;;;;;;4944147;29;20039;-74
2023/04/03 12:21:24;;;;;;;4.60;1.50;;;8.30;83.80;;;;;;4944552;29;20036;-75
2023/04/03 12:24:15;;;;;;;;;;;8.20;83.70;;;;;;4944659;29;20087;-75
2023/04/03 12:26:50;;;;;;;2.97;1.20;;;8.20;84.40;;;;;;4926667;29;20253;-74
2023/04/03 12:29:39;;;;;;;3.08;1.25;;;8.40;84.60;;;;;;4944400;29;20040;-74
2023/04/03 12:32:35;;;;;;;2.78;1.30;;;8.70;82.30;;;;;;4944257;29;20086;-73
2023/04/03 12:36:07;;;;;;;5.28;1.50;;;8.70;80.70;;;;;;4936395;29;20067;-72
2023/04/03 12:39:05;;;;;;;4.35;1.20;;;8.70;81.40;;;;;;4867174;29;20050;-73
2023/04/03 12:41:31;;;;;;;;;;;8.80;80.40;;;;;;4852124;29;20049;-75
2023/04/03 12:44:37;;;;;;;3.83;1.38;;;8.60;80.70;;;;;;4866825;29;19904;-75
2023/04/03 12:47:18;;;;;;;3.25;1.30;;;8.50;81.00;;;;;;4867161;29;20045;-74
2023/04/03 12:49:45;;;;;;;5.25;1.60;;;8.50;81.30;;;;;;4867138;29;20060;-73
2023/04/03 12:52:31;;;;;;;3.30;1.30;;;8.60;81.40;;;;;;4833516;29;20056;-74
2023/04/03 12:55:06;;;;;;;3.58;1.45;;;8.80;81.50;;;;;;4870915;29;20046;-74
2023/04/03 12:57:32;;;;;;;3.83;1.40;;;8.70;80.10;;;;;;4870843;29;20331;-73
2023/04/03 13:00:21;;;;;;;4.47;1.67;;;8.80;80.20;;;;;;4836526;29;20048;-75
2023/04/03 13:02:49;;;;;;;;;;;8.80;79.60;;;;;;4867292;29;20373;-74
2023/04/03 13:05:35;;;;;;;3.85;1.20;;;9.00;79.40;;;;;;4870634;29;19908;-75
2023/04/03 13:08:07;;;;;;;4.78;1.27;;;9.60;78.10;;;;;;4854509;29;20079;-73
2023/04/03 13:10:48;;;;;;;3.80;1.30;;;9.80;76.50;;;;;;4939196;29;20035;-74
2023/04/03 13:13:17;;;;;;;4.97;1.35;;;9.80;75.80;;;;;;4927020;29;20183;-74
2023/04/03 13:15:52;;;;;;;3.03;1.33;;;9.80;75.00;;;;;;4940072;29;20313;-74
2023/04/03 13:18:25;;;;;;;3.53;1.30;;;10.00;76.50;;;;;;4947559;29;20035;-77
2023/04/03 13:20:52;;;;;;;6.22;1.50;;;10.20;76.60;;;;;;4946194;29;20224;-73
2023/04/03 13:23:23;;;;;;;4.13;1.02;;;10.50;75.00;;;;;;4947406;29;20036;-77
2023/04/03 13:25:50;;;;;;;4.13;1.70;;;10.40;73.90;;;;;;4943195;29;20084;-73
2023/04/03 13:28:20;;;;;;;2.72;1.30;;;10.30;73.40;;;;;;4947153;29;20028;-72
2023/04/03 13:31:04;;;;;;;3.33;1.10;;;10.00;74.90;;;;;;4947412;29;20046;-75
2023/04/03 13:33:37;;;;;;;4.22;1.65;;;9.80;73.70;;;;;;4947383;29;20037;-73
2023/04/03 13:36:08;;;;;;;3.70;1.27;;;9.50;74.40;;;;;;4946807;29;20023;-73
2023/04/03 13:38:36;;;;;;;3.95;1.25;;;9.40;75.10;;;;;;4942541;29;20229;-73
2023/04/03 13:41:20;;;;;;;3.90;1.20;;;9.70;74.90;;;;;;4946432;29;20286;-71
2023/04/03 13:43:46;;;;;;;3.05;1.13;;;11.50;73.00;;;;;;4947360;29;20034;-72
2023/04/03 13:46:11;;;;;;;5.07;1.35;;;12.60;70.00;;;;;;4945126;29;20035;-73
2023/04/03 13:48:39;;;;;;;5.50;1.50;;;12.70;67.90;;;;;;4946803;29;20027;-72
2023/04/03 13:51:13;;;;;;;2.90;1.30;;;12.60;67.80;;;;;;4946920;29;20234;-72
2023/04/03 13:53:52;;;;;;;2.90;1.10;;;12.30;68.00;;;;;;4947157;29;20321;-72
2023/04/03 13:56:31;;;;;;;2.97;1.20;;;12.30;68.40;;;;;;4947228;29;20039;-71
2023/04/03 13:59:03;;;;;;;4.97;1.50;;;12.50;67.60;;;;;;4946273;29;20039;-73
2023/04/03 14:01:50;;;;;;;3.10;1.20;;;12.30;68.00;;;;;;4947114;29;20086;-73
2023/04/03 14:04:25;;;;;;;4.55;1.20;;;11.90;68.40;;;;;;4946545;29;20195;-74
2023/04/03 14:06:52;;;;;;;2.70;1.40;;;11.60;70.00;;;;;;4945906;29;20118;-74
2023/04/03 14:09:20;;;;;;;3.47;1.30;;;11.50;69.40;;;;;;4947088;29;20036;-73
2023/04/03 14:11:48;;;;;;;4.93;1.50;;;11.30;70.00;;;;;;4946972;29;20043;-73
2023/04/03 14:14:30;;;;;;;3.33;1.17;;;10.80;71.00;;;;;;4946212;29;20067;-73
2023/04/03 14:17:00;;;;;;;4.28;1.58;;;10.60;70.80;;;;;;4945936;29;20046;-74
2023/04/03 14:19:31;;;;;;;5.50;1.75;;;10.30;71.20;;;;;;4946501;29;20047;-75
2023/04/03 14:21:59;;;;;;;3.13;1.20;;;10.20;71.10;;;;;;4944998;29;20228;-75
2023/04/03 14:24:27;;;;;;;3.77;1.90;;;10.00;72.30;;;;;;4944569;29;20032;-73
2023/04/03 14:26:54;;;;;;;7.07;1.87;;;9.80;72.10;;;;;;4934868;29;20019;-74
2023/04/03 14:29:21;;;;;;;3.03;1.20;;;9.80;72.50;;;;;;4946175;29;20035;-73
2023/04/03 14:31:49;;;;;;;3.50;1.35;;;9.60;73.00;;;;;;4945709;29;20431;-73
2023/04/03 14:34:15;;;;;;;3.50;1.33;;;10.50;72.10;;;;;;4945890;29;20039;-72
2023/04/03 14:36:43;;;;;;;3.53;1.20;;;12.70;66.90;;;;;;4946446;29;20044;-73
2023/04/03 14:39:16;;;;;;;4.15;0.95;;;14.50;63.70;;;;;;4945295;29;20196;-74
2023/04/03 14:41:43;;;;;;;4.65;1.25;;;15.50;60.50;;;;;;4946441;29;20036;-73
2023/04/03 14:44:08;;;;;;;4.13;1.75;;;14.70;61.40;;;;;;4944786;29;20031;-73
2023/04/03 14:46:36;;;;;;;2.47;1.10;;;13.80;62.40;;;;;;4945847;29;20044;-73
2023/04/03 14:49:07;;;;;;;3.80;1.20;;;13.20;63.90;;;;;;4945709;29;20076;-74
2023/04/03 14:51:34;;;;;;;3.63;1.30;;;12.30;64.30;;;;;;4945968;29;20051;-73
2023/04/03 14:54:00;;;;;;;2.85;1.20;;;11.60;66.40;;;;;;4945544;29;20035;-73
2023/04/03 14:56:29;;;;;;;3.72;1.60;;;10.70;67.70;;;;;;4946019;29;20054;-73
2023/04/03 14:59:02;;;;;;;3.65;1.70;;;10.20;69.00;;;;;;4945605;29;20019;-74
2023/04/03 15:01:28;;;;;;;5.72;1.70;;;10.10;69.70;;;;;;4945720;29;20094;-73
2023/04/03 15:03:54;;;;;;;2.70;1.17;;;10.10;69.30;;;;;;4945146;29;20043;-73
2023/04/03 15:06:29;;;;;;;3.83;1.30;;;10.00;68.70;;;;;;4944549;29;20230;-72
2023/04/03 15:08:55;;;;;;;3.53;1.40;;;9.90;69.00;;;;;;4928465;29;20043;-73
2023/04/03 15:11:21;;;;;;;5.18;1.60;;;9.80;70.00;;;;;;4945742;29;20083;-74
2023/04/03 15:13:47;;;;;;;3.38;1.30;;;9.90;69.10;;;;;;4944474;29;20092;-73
2023/04/03 15:16:17;;;;;;;4.72;1.58;;;9.80;69.50;;;;;;4945020;29;20372;-74
2023/04/03 15:18:44;;;;;;;2.92;0.90;;;10.00;69.30;;;;;;4944715;29;20384;-74
2023/04/03 15:21:13;;;;;;;4.63;1.10;;;10.60;67.20;;;;;;4929825;29;20111;-72
2023/04/03 15:23:39;;;;;;;2.58;1.20;;;10.90;65.70;;;;;;4932579;29;20086;-74
2023/04/03 15:26:06;;;;;;;4.97;1.15;;;11.40;65.00;;;;;;4930913;29;20070;-74
2023/04/03 15:28:35;;;;;;;3.63;0.95;;;11.30;65.10;;;;;;4928724;29;20341;-73
2023/04/03 15:31:01;;;;;;;3.33;1.20;;;10.80;65.00;;;;;;4944933;29;20215;-73
2023/04/03 15:33:27;;;;;;;3.22;1.23;;;10.30;66.40;;;;;;4944190;29;20134;-74
2023/04/03 15:35:54;;;;;;;3.17;1.13;;;10.00;67.70;;;;;;4931891;29;20024;-73
2023/04/03 15:38:20;;;;;;;3.67;1.10;;;9.70;67.60;;;;;;4941243;29;20054;-74
2023/04/03 15:40:46;;;;;;;4.03;1.33;;;9.40;68.50;;;;;;4928432;29;20329;-73
2023/04/03 15:43:16;;;;;;;5.07;1.50;;;9.10;69.40;;;;;;4944570;29;20377;-74
2023/04/03 15:45:47;;;;;;;3.15;1.40;;;8.80;70.10;;;;;;4942355;29;20083;-73
2023/04/03 15:48:13;;;;;;;4.60;1.50;;;8.90;71.40;;;;;;4943393;29;20038;-73
2023/04/03 15:50:40;;;;;;;2.80;1.08;;;11.50;67.50;;;;;;4944095;29;20027;-72
2023/04/03 15:53:09;;;;;;;3.25;1.08;;;14.50;61.20;;;;;;4944428;29;20107;-72
2023/04/03 15:55:38;;;;;;;3.60;1.20;;;16.20;58.40;;;;;;4944875;29;20207;-72
2023/04/03 15:58:10;;;;;;;3.13;1.00;;;17.40;56.30;;;;;;4927700;29;20047;-74
2023/04/03 16:00:37;;;;;;;3.15;1.00;;;18.60;54.60;;;;;;4928149;29;20116;-74
2023/04/03 16:03:10;;;;;;;3.22;1.50;;;18.00;53.20;;;;;;4944157;29;20111;-71
2023/04/03 16:05:38;;;;;;;3.47;1.20;;;18.00;54.20;;;;;;4924817;29;20068;-72
2023/04/03 16:08:10;;;;;;;4.72;1.40;;;18.50;52.90;;;;;;4942417;29;20032;-73
2023/04/03 16:10:44;;;;;;;3.08;1.00;;;19.80;52.50;;;;;;4944798;29;20046;-74
2023/04/03 16:13:15;;;;;;;2.40;0.90;;;19.70;51.90;;;;;;4944232;29;20039;-73
2023/04/03 16:15:44;;;;;;;4.13;1.00;;;18.30;51.20;;;;;;4944659;29;20082;-73
2023/04/03 16:18:13;;;;;;;3.58;1.00;;;16.50;53.00;;;;;;4943815;29;20035;-73
2023/04/03 16:20:43;;;;;;;2.63;1.00;;;15.70;53.90;;;;;;4943390;29;20043;-73
2023/04/03 16:23:13;;;;;;;2.45;0.80;;;14.80;54.10;;;;;;4942021;29;20044;-74
2023/04/03 16:25:55;;;;;;;3.70;1.30;;;13.10;56.20;;;;;;4939839;29;20048;-73
2023/04/03 16:28:26;;;;;;;2.72;1.13;;;11.90;58.30;;;;;;4930965;29;20043;-74
2023/04/03 16:30:52;;;;;;;2.75;1.20;;;10.60;60.60;;;;;;4944398;29;20039;-75
2023/04/03 16:33:21;;;;;;;2.80;0.98;;;10.00;61.50;;;;;;4927416;29;20036;-74
2023/04/03 16:35:48;;;;;;;3.80;1.55;;;9.90;63.20;;;;;;4927938;29;20051;-74
2023/04/03 16:38:18;;;;;;;3.65;1.77;;;10.00;64.90;;;;;;4923891;29;20032;-76
2023/04/03 16:40:56;;;;;;;3.85;1.20;;;10.70;63.40;;;;;;4937589;29;20039;-73
2023/04/03 16:43:23;;;;;;;3.33;1.40;;;12.80;59.40;;;;;;4942285;29;20067;-73
2023/04/03 16:45:51;;;;;;;3.00;1.20;;;14.90;56.70;;;;;;4939189;29;20047;-74
2023/04/03 16:48:20;;;;;;;3.35;1.27;;;16.10;54.90;;;;;;4944039;29;20085;-73
2023/04/03 16:50:48;;;;;;;4.95;1.55;;;17.30;53.50;;;;;;4940687;29;20098;-73
2023/04/03 16:53:17;;;;;;;2.78;1.40;;;17.60;52.30;;;;;;4943924;29;20043;-74
2023/04/03 16:55:46;;;;;;;4.93;1.15;;;18.10;51.90;;;;;;4944280;29;20040;-73
2023/04/03 16:58:20;;;;;;;3.47;1.15;;;17.60;52.20;;;;;;4943582;29;20035;-77
2023/04/03 17:00:47;;;;;;;2.83;1.17;;;17.10;52.20;;;;;;4944086;29;20213;-75
2023/04/03 17:03:29;;;;;;;3.60;1.27;;;16.20;53.50;;;;;;4942435;29;20043;-76
2023/04/03 17:05:58;;;;;;;3.88;1.50;;;14.70;55.40;;;;;;4942774;29;20035;-73
2023/04/03 17:08:23;;;;;;;2.70;1.30;;;13.20;56.60;;;;;;4944318;29;20058;-73
2023/04/03 17:10:55;;;;;;;4.72;1.63;;;12.00;59.00;;;;;;4944455;29;20024;-74
2023/04/03 17:13:31;;;;;;;3.40;1.20;;;11.20;60.80;;;;;;4940792;29;20040;-73
2023/04/03 17:15:58;;;;;;;3.83;1.10;;;10.80;61.90;;;;;;4944073;29;20044;-73
2023/04/03 17:18:27;;;;;;;2.60;1.15;;;10.00;62.70;;;;;;4923913;29;20028;-74
2023/04/03 17:20:56;;;;;;;3.77;1.40;;;9.50;64.50;;;;;;4917841;29;20293;-73
2023/04/03 17:23:28;;;;;;;3.60;1.40;;;9.20;65.10;;;;;;4931289;29;20067;-73
2023/04/03 17:25:55;;;;;;;3.03;1.42;;;8.90;65.70;;;;;;4930475;29;20080;-73
2023/04/03 17:28:27;;;;;;;3.97;1.27;;;8.70;66.60;;;;;;4914254;29;20122;-71
2023/04/03 17:30:58;;;;;;;3.38;1.20;;;8.50;67.50;;;;;;4943819;29;20229;-74
2023/04/03 17:33:25;;;;;;;3.63;1.33;;;8.30;67.70;;;;;;4942540;29;20055;-75
2023/04/03 17:35:56;;;;;;;3.60;1.67;;;8.20;68.40;;;;;;4943835;29;20032;-72
2023/04/03 17:38:23;;;;;;;3.97;1.75;;;8.10;69.00;;;;;;4939477;29;20070;-73
2023/04/03 17:40:49;;;;;;;4.72;2.13;;;7.80;69.60;;;;;;4924526;29;20168;-76
2023/04/03 17:43:17;;;;;;;7.43;1.90;;;7.70;69.70;;;;;;4945566;29;20058;-75
2023/04/03 17:45:43;;;;;;;3.13;1.70;;;7.60;70.60;;;;;;4945073;29;20036;-74
2023/04/03 17:48:09;;;;;;;4.20;1.52;;;7.50;70.60;;;;;;4946616;29;20023;-74
2023/04/03 17:50:36;;;;;;;4.80;1.80;;;7.50;72.10;;;;;;4946987;29;20032;-74
2023/04/03 17:53:02;;;;;;;2.78;1.50;;;7.40;70.60;;;;;;4946768;29;20047;-73
2023/04/03 17:55:28;;;;;;;4.38;1.60;;;7.40;72.20;;;;;;4947161;29;20223;-74
2023/04/03 17:57:54;;;;;;;3.38;1.50;;;7.40;71.30;;;;;;4945683;29;20227;-73
2023/04/03 18:00:20;;;;;;;4.82;1.83;;;7.40;71.90;;;;;;4929400;29;20286;-72
2023/04/03 18:02:45;;;;;;;3.35;1.70;;;7.30;72.20;;;;;;4946591;29;20052;-73
2023/04/03 18:05:11;;;;;;;3.78;1.80;;;7.30;72.30;;;;;;4946283;29;20035;-72
2023/04/03 18:07:38;;;;;;;5.00;1.75;;;7.20;72.70;;;;;;4946838;29;20062;-73
2023/04/03 18:10:08;;;;;;;3.50;1.60;;;7.20;72.80;;;;;;4946353;29;20070;-76
2023/04/03 18:12:41;;;;;;;4.25;1.70;;;7.10;72.50;;;;;;4926758;29;20166;-73
2023/04/03 18:15:07;;;;;;;3.67;1.90;;;7.00;74.00;;;;;;4945081;29;20043;-72
2023/04/03 18:17:33;;;;;;;3.00;1.35;;;7.00;73.20;;;;;;4946447;29;20039;-70
2023/04/03 18:19:59;;;;;;;4.30;1.80;;;7.00;72.50;;;;;;4946466;29;20043;-74
2023/04/03 18:22:25;;;;;;;2.75;1.60;;;7.00;72.70;;;;;;4946264;29;20032;-72
2023/04/03 18:24:52;;;;;;;4.20;1.55;;;6.90;72.90;;;;;;4940895;29;20039;-74